createdAt,value
2023-04-18T00:02:17.553Z,55.90
2023-04-18T00:04:46.405Z,56.00
2023-04-18T00:07:17.274Z,56.00
2023-04-18T00:09:46.608Z,56.00
2023-04-18T00:12:13.822Z,56.00
2023-04-18T00:14:41.057Z,56.00
2023-04-18T00:17:08.671Z,56.10
2023-04-18T00:19:41.207Z,56.10
2023-04-18T00:22:11.118Z,56.20
2023-04-18T00:24:40.539Z,56.20
2023-04-18T00:27:09.884Z,56.20
2023-04-18T00:29:40.427Z,56.30
2023-04-18T00:32:07.303Z,56.30
2023-04-18T00:34:34.458Z,56.40
2023-04-18T00:37:01.588Z,56.40
2023-04-18T00:39:30.992Z,56.50
2023-04-18T00:41:57.938Z,56.50
2023-04-18T00:44:26.980Z,56.50
2023-04-18T00:46:56.295Z,57.20
2023-04-18T00:49:26.332Z,56.60
2023-04-18T00:51:56.382Z,56.60
2023-04-18T00:54:25.709Z,56.60
2023-04-18T00:56:52.778Z,56.60
2023-04-18T00:59:21.742Z,56.60
2023-04-18T01:01:48.697Z,56.70
2023-04-18T01:04:17.117Z,56.70
2023-04-18T01:06:46.997Z,56.80
2023-04-18T01:09:14.155Z,56.80
2023-04-18T01:11:47.129Z,56.80
2023-04-18T01:14:20.803Z,56.80
2023-04-18T01:16:49.903Z,56.90
2023-04-18T01:19:19.031Z,56.90
2023-04-18T01:21:46.182Z,56.90
2023-04-18T01:24:17.916Z,56.90
2023-04-18T01:26:49.794Z,56.90
2023-04-18T01:29:16.826Z,56.90
2023-04-18T01:31:46.396Z,56.90
2023-04-18T01:34:18.011Z,57.00
2023-04-18T01:36:47.794Z,57.00
2023-04-18T01:39:15.459Z,57.00
2023-04-18T01:41:42.630Z,57.00
2023-04-18T01:44:11.880Z,57.00
2023-04-18T01:46:42.054Z,57.10
2023-04-18T01:49:13.704Z,57.70
2023-04-18T01:51:43.034Z,57.20
2023-04-18T01:54:17.101Z,57.10
2023-04-18T01:56:44.001Z,57.20
2023-04-18T01:59:15.379Z,57.10
2023-04-18T02:01:45.058Z,57.20
2023-04-18T02:04:12.077Z,57.20
2023-04-18T02:06:41.286Z,57.20
2023-04-18T02:09:11.034Z,57.30
2023-04-18T02:11:40.401Z,57.40
2023-04-18T02:14:07.363Z,57.40
2023-04-18T02:16:35.143Z,57.40
2023-04-18T02:19:04.727Z,57.40
2023-04-18T02:21:31.790Z,57.50
2023-04-18T02:23:58.619Z,57.40
2023-04-18T02:26:25.702Z,57.50
2023-04-18T02:28:58.529Z,57.50
2023-04-18T02:31:31.961Z,57.50
2023-04-18T02:34:01.472Z,57.60
2023-04-18T02:36:28.366Z,57.60
2023-04-18T02:38:55.688Z,57.60
2023-04-18T02:41:25.053Z,57.70
2023-04-18T02:43:56.397Z,57.70
2023-04-18T02:46:25.799Z,57.70
2023-04-18T02:48:57.691Z,57.80
2023-04-18T02:51:26.335Z,57.80
2023-04-18T02:53:56.215Z,57.90
2023-04-18T02:56:24.430Z,57.90
2023-04-18T02:59:14.637Z,57.90
2023-04-18T03:01:58.626Z,58.10
2023-04-18T03:04:25.665Z,58.00
2023-04-18T03:07:02.967Z,58.10
2023-04-18T03:09:36.192Z,58.10
2023-04-18T03:12:11.300Z,58.10
2023-04-18T03:14:39.076Z,58.20
2023-04-18T03:17:05.972Z,58.20
2023-04-18T03:19:38.676Z,58.30
2023-04-18T03:22:13.324Z,58.40
2023-04-18T03:24:47.728Z,58.40
2023-04-18T03:27:15.840Z,59.00
2023-04-18T03:29:47.407Z,58.30
2023-04-18T03:32:14.829Z,58.30
2023-04-18T03:34:41.828Z,58.40
2023-04-18T03:37:09.315Z,58.40
2023-04-18T03:39:49.026Z,58.50
2023-04-18T03:42:18.426Z,58.70
2023-04-18T03:44:48.828Z,58.70
2023-04-18T03:47:18.069Z,58.60
2023-04-18T03:49:50.596Z,58.70
2023-04-18T03:52:17.722Z,58.70
2023-04-18T03:54:49.462Z,58.80
2023-04-18T03:57:21.667Z,58.90
2023-04-18T03:59:53.102Z,58.90
2023-04-18T04:02:26.486Z,58.80
2023-04-18T04:04:55.770Z,59.00
2023-04-18T04:07:25.466Z,58.90
2023-04-18T04:09:55.151Z,59.00
2023-04-18T04:12:27.978Z,59.00
2023-04-18T04:14:54.969Z,59.20
2023-04-18T04:17:24.612Z,59.00
2023-04-18T04:19:52.846Z,59.10
2023-04-18T04:22:20.980Z,59.20
2023-04-18T04:24:52.994Z,59.20
2023-04-18T04:27:29.507Z,59.20
2023-04-18T04:29:56.957Z,59.20
2023-04-18T04:32:28.352Z,59.20
2023-04-18T04:34:57.434Z,59.40
2023-04-18T04:37:28.261Z,59.30
2023-04-18T04:40:15.643Z,59.30
2023-04-18T04:42:42.610Z,59.30
2023-04-18T04:45:23.208Z,59.30
2023-04-18T04:47:52.410Z,59.50
2023-04-18T04:50:21.014Z,59.40
2023-04-18T04:52:52.717Z,59.50
2023-04-18T04:55:22.274Z,59.60
2023-04-18T04:57:50.334Z,59.60
2023-04-18T05:00:42.365Z,59.70
2023-04-18T05:03:12.097Z,59.70
2023-04-18T05:05:41.432Z,59.80
2023-04-18T05:08:08.432Z,59.80
2023-04-18T05:10:37.141Z,59.80
2023-04-18T05:13:11.483Z,59.90
2023-04-18T05:15:39.904Z,60.00
2023-04-18T05:18:09.129Z,59.90
2023-04-18T05:20:36.520Z,59.90
2023-04-18T05:23:03.408Z,60.00
2023-04-18T05:25:31.721Z,60.00
2023-04-18T05:28:08.275Z,60.70
2023-04-18T05:30:37.391Z,60.10
2023-04-18T05:33:06.325Z,60.10
2023-04-18T05:35:33.568Z,60.00
2023-04-18T05:38:02.500Z,60.00
2023-04-18T05:40:29.908Z,60.00
2023-04-18T05:43:01.257Z,59.90
2023-04-18T05:45:28.112Z,60.00
2023-04-18T05:47:55.002Z,59.90
2023-04-18T05:50:24.652Z,60.00
2023-04-18T05:52:53.695Z,60.00
2023-04-18T05:55:20.665Z,60.00
2023-04-18T05:57:47.484Z,60.10
2023-04-18T06:00:15.112Z,60.10
2023-04-18T06:02:44.524Z,60.20
2023-04-18T06:05:16.698Z,60.30
2023-04-18T06:07:45.936Z,60.20
2023-04-18T06:10:13.439Z,60.20
2023-04-18T06:12:45.197Z,60.10
2023-04-18T06:15:14.204Z,60.20
2023-04-18T06:17:44.575Z,60.10
2023-04-18T06:20:13.870Z,60.10
2023-04-18T06:22:40.809Z,60.20
2023-04-18T06:25:15.971Z,60.10
2023-04-18T06:27:42.876Z,60.10
2023-04-18T06:30:10.576Z,60.10
2023-04-18T06:32:40.864Z,60.10
2023-04-18T06:35:10.871Z,60.10
2023-04-18T06:37:44.032Z,60.00
2023-04-18T06:40:12.318Z,60.00
2023-04-18T06:42:43.542Z,59.80
2023-04-18T06:45:15.223Z,59.80
2023-04-18T06:47:44.648Z,59.80
2023-04-18T06:50:17.342Z,59.70
2023-04-18T06:52:46.489Z,59.80
2023-04-18T06:55:15.993Z,59.80
2023-04-18T06:57:43.519Z,59.80
2023-04-18T07:00:13.631Z,59.70
2023-04-18T07:02:43.434Z,59.70
2023-04-18T07:05:12.610Z,59.80
2023-04-18T07:07:41.458Z,59.70
2023-04-18T07:10:11.789Z,59.70
2023-04-18T07:12:38.762Z,59.80
2023-04-18T07:15:08.968Z,59.80
2023-04-18T07:17:38.277Z,59.80
2023-04-18T07:20:08.632Z,59.80
2023-04-18T07:22:42.011Z,59.80
2023-04-18T07:25:13.603Z,59.80
2023-04-18T07:27:42.614Z,59.80
2023-04-18T07:30:10.117Z,59.80
2023-04-18T07:32:39.342Z,59.70
2023-04-18T07:35:06.692Z,59.70
2023-04-18T07:37:33.826Z,59.70
2023-04-18T07:40:04.205Z,59.80
2023-04-18T07:42:33.300Z,59.80
2023-04-18T07:45:02.336Z,59.80
2023-04-18T07:47:30.471Z,59.80
2023-04-18T07:50:02.897Z,59.80
2023-04-18T07:52:32.093Z,59.80
2023-04-18T07:55:01.298Z,59.70
2023-04-18T07:57:30.523Z,59.60
2023-04-18T07:59:57.382Z,59.70
2023-04-18T08:02:24.352Z,59.70
2023-04-18T08:04:53.329Z,59.70
2023-04-18T08:07:20.650Z,59.80
2023-04-18T08:09:50.030Z,59.90
2023-04-18T08:12:19.038Z,59.90
2023-04-18T08:14:47.987Z,59.80
2023-04-18T08:17:14.889Z,59.80
2023-04-18T08:19:41.779Z,59.60
2023-04-18T08:22:10.825Z,59.40
2023-04-18T08:25:00.963Z,59.20
2023-04-18T08:27:33.087Z,59.10
2023-04-18T08:30:00.591Z,59.10
2023-04-18T08:32:32.023Z,59.10
2023-04-18T08:34:59.103Z,59.10
2023-04-18T08:37:27.734Z,59.10
2023-04-18T08:39:54.579Z,59.10
2023-04-18T08:42:25.125Z,59.00
2023-04-18T08:44:57.752Z,58.90
2023-04-18T08:47:31.052Z,58.80
2023-04-18T08:50:01.656Z,58.70
2023-04-18T08:52:32.427Z,58.60
2023-04-18T08:54:59.277Z,58.60
2023-04-18T08:57:28.247Z,58.60
2023-04-18T08:59:57.699Z,58.60
2023-04-18T09:02:42.306Z,58.60
2023-04-18T09:05:19.401Z,58.30
2023-04-18T09:07:48.882Z,58.40
2023-04-18T09:10:30.719Z,58.50
2023-04-18T09:13:05.759Z,58.40
2023-04-18T09:15:32.656Z,58.50
2023-04-18T09:18:10.249Z,58.40
2023-04-18T09:20:42.188Z,58.20
2023-04-18T09:23:26.165Z,58.00
2023-04-18T09:25:55.573Z,57.80
2023-04-18T09:28:29.855Z,57.80
2023-04-18T09:31:16.411Z,57.60
2023-04-18T09:33:56.768Z,57.30
2023-04-18T09:36:27.688Z,57.30
2023-04-18T09:38:57.064Z,57.20
2023-04-18T09:41:24.597Z,56.90
2023-04-18T09:44:17.159Z,56.70
2023-04-18T09:46:51.568Z,56.10
2023-04-18T09:49:18.802Z,56.60
2023-04-18T09:51:48.741Z,56.50
2023-04-18T09:54:19.647Z,56.50
2023-04-18T09:56:51.697Z,56.40
2023-04-18T09:59:39.985Z,56.50
2023-04-18T10:02:16.306Z,56.30
2023-04-18T10:04:49.184Z,56.40
2023-04-18T10:07:20.987Z,56.40
2023-04-18T10:09:49.163Z,56.30
2023-04-18T10:12:21.310Z,56.30
2023-04-18T10:14:48.787Z,56.20
2023-04-18T10:17:22.201Z,56.20
2023-04-18T10:20:08.086Z,56.20
2023-04-18T10:22:35.747Z,56.00
2023-04-18T10:25:08.673Z,56.40
2023-04-18T10:27:47.791Z,56.50
2023-04-18T10:30:16.545Z,56.30
2023-04-18T10:32:46.337Z,56.60
2023-04-18T10:35:13.789Z,56.60
2023-04-18T10:37:51.540Z,56.70
2023-04-18T10:40:35.165Z,56.10
2023-04-18T10:43:04.505Z,55.80
2023-04-18T10:45:39.142Z,56.10
2023-04-18T10:48:29.386Z,56.00
2023-04-18T10:51:26.484Z,55.60
2023-04-18T10:54:02.529Z,55.30
2023-04-18T10:56:29.767Z,55.50
2023-04-18T10:59:05.009Z,55.30
2023-04-18T11:01:37.111Z,55.00
2023-04-18T11:04:13.808Z,55.20
2023-04-18T11:06:57.564Z,55.00
2023-04-18T11:09:29.780Z,54.40
2023-04-18T11:12:10.539Z,54.90
2023-04-18T11:14:43.307Z,54.40
2023-04-18T11:17:40.306Z,53.70
2023-04-18T11:20:21.577Z,53.10
2023-04-18T11:23:00.714Z,53.40
2023-04-18T11:25:31.941Z,53.50
2023-04-18T11:28:01.215Z,53.50
2023-04-18T11:30:38.548Z,53.30
2023-04-18T11:33:16.670Z,52.80
2023-04-18T11:35:46.827Z,52.10
2023-04-18T11:38:18.522Z,51.90
2023-04-18T11:40:50.472Z,51.70
2023-04-18T11:43:25.559Z,51.20
2023-04-18T11:45:58.038Z,51.00
2023-04-18T11:48:34.948Z,50.80
2023-04-18T11:51:07.884Z,51.00
2023-04-18T11:53:37.421Z,50.90
2023-04-18T11:56:07.799Z,50.70
2023-04-18T11:58:36.490Z,50.60
2023-04-18T12:01:26.925Z,50.60
2023-04-18T12:04:20.223Z,50.20
2023-04-18T12:06:53.776Z,50.30
2023-04-18T12:09:27.518Z,50.40
2023-04-18T12:12:04.215Z,50.70
2023-04-18T12:14:35.784Z,50.80
2023-04-18T12:17:03.924Z,51.20
2023-04-18T12:19:34.198Z,51.20
2023-04-18T12:22:06.470Z,51.20
2023-04-18T12:24:33.661Z,51.00
2023-04-18T12:27:03.413Z,51.00
2023-04-18T12:29:30.425Z,51.20
2023-04-18T12:32:06.974Z,51.50
2023-04-18T12:34:36.217Z,51.40
2023-04-18T12:37:04.898Z,51.30
2023-04-18T12:39:31.907Z,51.20
2023-04-18T12:41:58.694Z,50.90
2023-04-18T12:44:28.091Z,50.70
2023-04-18T12:46:59.765Z,50.60
2023-04-18T12:49:26.630Z,50.50
2023-04-18T12:51:53.461Z,50.40
2023-04-18T12:54:27.330Z,50.30
2023-04-18T12:56:58.716Z,50.30
2023-04-18T12:59:29.422Z,50.30
2023-04-18T13:01:58.514Z,50.20
2023-04-18T13:04:30.337Z,49.90
2023-04-18T13:06:57.344Z,50.10
2023-04-18T13:09:29.293Z,49.70
2023-04-18T13:11:56.754Z,49.80
2023-04-18T13:14:26.463Z,49.70
2023-04-18T13:16:53.373Z,49.70
2023-04-18T13:19:22.815Z,49.70
2023-04-18T13:21:49.739Z,49.70
2023-04-18T13:24:19.052Z,49.60
2023-04-18T13:26:48.379Z,49.70
2023-04-18T13:29:17.759Z,49.70
2023-04-18T13:31:51.703Z,49.80
2023-04-18T13:34:21.033Z,49.60
2023-04-18T13:36:47.830Z,49.70
2023-04-18T13:39:15.618Z,49.80
2023-04-18T13:41:44.948Z,49.80
2023-04-18T13:44:13.784Z,49.70
2023-04-18T13:46:40.922Z,49.80
2023-04-18T13:49:12.112Z,49.80
2023-04-18T13:51:41.690Z,49.80
2023-04-18T13:54:14.654Z,49.90
2023-04-18T13:56:42.667Z,50.00
2023-04-18T13:59:09.499Z,50.10
2023-04-18T14:01:41.332Z,50.20
2023-04-18T14:04:10.954Z,50.10
2023-04-18T14:06:38.245Z,50.20
2023-04-18T14:09:07.858Z,50.30
2023-04-18T14:11:35.444Z,50.30
2023-04-18T14:14:02.766Z,50.40
2023-04-18T14:16:34.461Z,50.00
2023-04-18T14:19:02.313Z,49.70
2023-04-18T14:21:34.372Z,49.60
2023-04-18T14:24:05.634Z,49.40
2023-04-18T14:26:37.312Z,49.50
2023-04-18T14:29:06.461Z,49.60
2023-04-18T14:31:35.803Z,49.70
2023-04-18T14:34:08.795Z,49.80
2023-04-18T14:36:37.967Z,49.80
2023-04-18T14:39:06.996Z,49.80
2023-04-18T14:41:36.262Z,49.70
2023-04-18T14:44:09.747Z,49.70
2023-04-18T14:46:36.796Z,49.60
2023-04-18T14:49:03.608Z,49.90
2023-04-18T14:51:33.016Z,50.10
2023-04-18T14:54:02.317Z,50.40
2023-04-18T14:56:29.091Z,51.00
2023-04-18T14:58:58.687Z,50.10
2023-04-18T15:01:26.261Z,49.90
2023-04-18T15:03:53.367Z,49.60
2023-04-18T15:06:20.393Z,49.50
2023-04-18T15:08:49.264Z,49.40
2023-04-18T15:11:20.952Z,49.30
2023-04-18T15:13:50.622Z,49.20
2023-04-18T15:16:19.611Z,49.30
2023-04-18T15:18:51.255Z,49.30
2023-04-18T15:21:18.133Z,49.20
2023-04-18T15:23:49.564Z,49.20
2023-04-18T15:26:18.960Z,49.30
2023-04-18T15:28:46.417Z,49.40
2023-04-18T15:31:16.411Z,49.30
2023-04-18T15:33:43.365Z,49.30
2023-04-18T15:36:14.956Z,49.20
2023-04-18T15:38:44.047Z,49.00
2023-04-18T15:41:13.231Z,48.90
2023-04-18T15:43:45.229Z,49.00
2023-04-18T15:46:14.653Z,49.10
2023-04-18T15:48:41.625Z,49.00
2023-04-18T15:51:08.672Z,49.10
2023-04-18T15:53:37.684Z,48.70
2023-04-18T15:56:10.131Z,48.50
2023-04-18T15:58:39.582Z,48.40
2023-04-18T16:01:06.909Z,48.10
2023-04-18T16:03:34.155Z,47.80
2023-04-18T16:06:01.139Z,47.80
2023-04-18T16:08:27.977Z,47.70
2023-04-18T16:10:55.047Z,47.80
2023-04-18T16:13:21.903Z,47.90
2023-04-18T16:15:48.834Z,47.90
2023-04-18T16:18:15.804Z,47.80
2023-04-18T16:20:47.327Z,47.70
2023-04-18T16:23:16.630Z,47.80
2023-04-18T16:25:43.437Z,48.00
2023-04-18T16:28:10.399Z,48.10
2023-04-18T16:30:42.193Z,48.20
2023-04-18T16:33:16.320Z,48.30
2023-04-18T16:35:45.565Z,48.20
2023-04-18T16:38:15.628Z,48.30
2023-04-18T16:40:45.227Z,48.40
2023-04-18T16:43:14.509Z,48.40
2023-04-18T16:45:41.364Z,48.40
2023-04-18T16:48:15.053Z,48.40
2023-04-18T16:50:46.889Z,48.60
2023-04-18T16:53:13.688Z,48.60
2023-04-18T16:55:43.469Z,48.60
2023-04-18T16:58:12.840Z,48.70
2023-04-18T17:00:44.606Z,48.70
2023-04-18T17:03:11.684Z,48.70
2023-04-18T17:05:39.327Z,48.80
2023-04-18T17:08:11.380Z,48.90
2023-04-18T17:10:38.304Z,48.90
2023-04-18T17:13:09.836Z,49.00
2023-04-18T17:15:36.945Z,49.00
2023-04-18T17:18:03.917Z,49.10
2023-04-18T17:20:33.271Z,49.10
2023-04-18T17:23:00.163Z,49.20
2023-04-18T17:25:29.530Z,49.20
2023-04-18T17:28:02.276Z,49.10
2023-04-18T17:30:31.709Z,49.20
2023-04-18T17:32:58.651Z,49.30
2023-04-18T17:35:27.820Z,49.30
2023-04-18T17:37:56.750Z,49.40
2023-04-18T17:40:26.179Z,49.50
2023-04-18T17:42:55.129Z,49.50
2023-04-18T17:45:22.086Z,49.50
2023-04-18T17:47:54.654Z,49.60
2023-04-18T17:50:21.613Z,49.60
2023-04-18T17:52:53.204Z,49.60
2023-04-18T17:55:20.604Z,49.80
2023-04-18T17:57:50.098Z,49.80
2023-04-18T18:00:17.992Z,49.90
2023-04-18T18:02:47.768Z,49.90
2023-04-18T18:05:19.576Z,50.60
2023-04-18T18:07:47.517Z,50.10
2023-04-18T18:10:23.636Z,50.10
2023-04-18T18:12:54.975Z,50.20
2023-04-18T18:15:21.967Z,51.00
2023-04-18T18:17:55.097Z,50.30
2023-04-18T18:20:29.290Z,50.40
2023-04-18T18:22:57.571Z,50.40
2023-04-18T18:25:24.434Z,50.40
2023-04-18T18:27:51.469Z,50.50
2023-04-18T18:30:22.972Z,50.60
2023-04-18T18:32:49.862Z,50.70
2023-04-18T18:35:21.312Z,50.70
2023-04-18T18:37:48.319Z,50.80
2023-04-18T18:40:19.818Z,50.90
2023-04-18T18:42:49.278Z,50.90
2023-04-18T18:45:19.752Z,51.00
2023-04-18T18:47:53.929Z,51.00
2023-04-18T18:50:25.466Z,51.10
2023-04-18T18:52:54.708Z,51.20
2023-04-18T18:55:26.219Z,51.20
2023-04-18T18:57:55.429Z,51.20
2023-04-18T19:00:24.787Z,51.30
2023-04-18T19:02:56.526Z,51.30
2023-04-18T19:05:26.108Z,51.50
2023-04-18T19:07:55.085Z,51.50
2023-04-18T19:10:24.302Z,51.50
2023-04-18T19:12:51.223Z,51.60
2023-04-18T19:15:20.032Z,51.60
2023-04-18T19:17:49.221Z,51.70
2023-04-18T19:20:16.201Z,51.80
2023-04-18T19:22:42.965Z,51.70
2023-04-18T19:25:12.718Z,51.80
2023-04-18T19:27:42.021Z,51.80
2023-04-18T19:30:10.480Z,51.80
2023-04-18T19:32:37.630Z,51.80
2023-04-18T19:35:07.548Z,51.80
2023-04-18T19:37:39.285Z,51.90
2023-04-18T19:40:12.353Z,51.90
2023-04-18T19:42:39.244Z,52.00
2023-04-18T19:45:11.997Z,52.10
2023-04-18T19:47:43.855Z,52.20
2023-04-18T19:50:13.716Z,52.10
2023-04-18T19:52:44.988Z,52.20
2023-04-18T19:55:12.127Z,52.20
2023-04-18T19:57:43.805Z,52.20
2023-04-18T20:00:14.052Z,52.30
2023-04-18T20:02:45.960Z,52.20
2023-04-18T20:05:15.779Z,52.30
2023-04-18T20:07:45.885Z,52.20
2023-04-18T20:10:12.779Z,52.30
2023-04-18T20:12:41.665Z,52.30
2023-04-18T20:15:14.382Z,52.40
2023-04-18T20:17:43.865Z,52.50
2023-04-18T20:20:13.102Z,52.50
2023-04-18T20:22:41.795Z,52.60
2023-04-18T20:25:11.246Z,52.70
2023-04-18T20:27:40.401Z,52.70
2023-04-18T20:30:10.072Z,52.80
2023-04-18T20:32:39.287Z,52.80
2023-04-18T20:35:07.222Z,52.80
2023-04-18T20:37:36.775Z,52.80
2023-04-18T20:40:11.250Z,52.80
2023-04-18T20:42:38.884Z,52.90
2023-04-18T20:45:10.735Z,52.80
2023-04-18T20:47:46.460Z,52.90
2023-04-18T20:50:18.048Z,53.00
2023-04-18T20:52:44.937Z,53.00
2023-04-18T20:55:16.714Z,53.10
2023-04-18T20:57:48.181Z,53.10
2023-04-18T21:00:19.759Z,53.20
2023-04-18T21:02:46.839Z,53.20
2023-04-18T21:05:16.314Z,53.20
2023-04-18T21:07:45.868Z,53.20
2023-04-18T21:10:12.873Z,53.30
2023-04-18T21:12:42.144Z,53.30
2023-04-18T21:15:15.068Z,53.40
2023-04-18T21:17:44.486Z,53.50
2023-04-18T21:20:11.480Z,53.40
2023-04-18T21:22:38.278Z,53.50
2023-04-18T21:25:07.941Z,53.50
2023-04-18T21:27:37.134Z,53.50
2023-04-18T21:30:06.729Z,53.60
2023-04-18T21:32:36.205Z,53.60
2023-04-18T21:35:06.402Z,53.60
2023-04-18T21:37:35.380Z,53.70
2023-04-18T21:40:05.168Z,53.60
2023-04-18T21:42:32.141Z,53.70
2023-04-18T21:45:01.508Z,53.60
2023-04-18T21:47:32.412Z,53.80
2023-04-18T21:50:05.508Z,53.90
2023-04-18T21:52:32.367Z,53.90
2023-04-18T21:54:59.271Z,53.80
2023-04-18T21:57:28.458Z,53.80
2023-04-18T22:00:00.437Z,53.90
2023-04-18T22:02:34.340Z,54.00
2023-04-18T22:05:01.433Z,54.10
2023-04-18T22:07:32.232Z,54.00
2023-04-18T22:10:02.325Z,54.10
2023-04-18T22:12:36.572Z,54.10
2023-04-18T22:15:07.301Z,54.20
2023-04-18T22:17:37.822Z,54.30
2023-04-18T22:20:11.142Z,54.30
2023-04-18T22:22:38.096Z,54.30
2023-04-18T22:25:11.224Z,54.40
2023-04-18T22:27:38.892Z,54.40
2023-04-18T22:30:06.866Z,54.40
2023-04-18T22:32:33.759Z,54.50
2023-04-18T22:35:03.982Z,54.50
2023-04-18T22:37:38.310Z,54.60
2023-04-18T22:40:12.617Z,54.70
2023-04-18T22:42:44.103Z,54.80
2023-04-18T22:45:13.524Z,54.80
2023-04-18T22:47:40.738Z,54.80
2023-04-18T22:50:12.741Z,54.80
2023-04-18T22:52:42.129Z,55.00
2023-04-18T22:55:13.896Z,55.60
2023-04-18T22:57:40.755Z,54.80
2023-04-18T23:00:11.164Z,54.80
2023-04-18T23:02:38.312Z,54.90
2023-04-18T23:05:07.320Z,54.90
2023-04-18T23:07:34.233Z,55.00
2023-04-18T23:10:07.813Z,54.90
2023-04-18T23:12:34.790Z,55.00
2023-04-18T23:15:03.918Z,55.00
2023-04-18T23:17:34.706Z,55.10
2023-04-18T23:20:04.523Z,55.10
2023-04-18T23:22:31.487Z,55.20
2023-04-18T23:25:00.878Z,55.20
2023-04-18T23:27:30.121Z,55.20
2023-04-18T23:29:59.162Z,55.20
2023-04-18T23:32:28.322Z,55.20
2023-04-18T23:34:55.200Z,55.30
2023-04-18T23:37:24.104Z,55.30
2023-04-18T23:39:53.407Z,55.30
2023-04-18T23:42:22.509Z,55.30
2023-04-18T23:44:49.673Z,55.50
2023-04-18T23:47:16.614Z,55.40
2023-04-18T23:49:43.624Z,55.40
2023-04-18T23:52:12.685Z,55.40
2023-04-18T23:54:41.782Z,55.50
2023-04-18T23:57:11.016Z,55.50
2023-04-18T23:59:38.146Z,55.60
